createdAt,value
2023-08-05T00:01:53.678Z,19.04
2023-08-05T00:04:20.192Z,19.05
2023-08-05T00:06:46.616Z,19.04
2023-08-05T00:09:13.077Z,19.03
2023-08-05T00:11:39.682Z,19.04
2023-08-05T00:14:06.201Z,19.04
2023-08-05T00:16:32.760Z,19.03
2023-08-05T00:19:00.601Z,19.03
2023-08-05T00:21:27.141Z,19.03
2023-08-05T00:23:53.628Z,19.04
2023-08-05T00:26:20.072Z,19.02
2023-08-05T00:28:46.545Z,19.03
2023-08-05T00:31:13.107Z,19.01
2023-08-05T00:33:39.555Z,19.02
2023-08-05T00:36:07.427Z,19.01
2023-08-05T00:38:33.925Z,19.01
2023-08-05T00:41:00.403Z,19.00
2023-08-05T00:43:26.989Z,19.01
2023-08-05T00:45:53.587Z,19.01
2023-08-05T00:48:20.371Z,19.00
2023-08-05T00:50:47.125Z,18.99
2023-08-05T00:53:14.989Z,19.00
2023-08-05T00:55:41.963Z,19.00
2023-08-05T00:58:08.922Z,19.01
2023-08-05T01:00:35.447Z,18.99
2023-08-05T01:03:02.080Z,18.99
2023-08-05T01:05:29.341Z,18.99
2023-08-05T01:07:56.078Z,18.99
2023-08-05T01:10:23.882Z,18.99
2023-08-05T01:12:50.419Z,18.99
2023-08-05T01:15:16.991Z,18.98
2023-08-05T01:17:43.616Z,18.99
2023-08-05T01:20:12.813Z,18.98
2023-08-05T01:22:43.092Z,18.98
2023-08-05T01:25:25.888Z,18.98
2023-08-05T01:27:53.612Z,18.97
2023-08-05T01:30:21.028Z,18.97
2023-08-05T01:32:49.211Z,18.97
2023-08-05T01:35:18.122Z,18.97
2023-08-05T01:37:44.554Z,18.97
2023-08-05T01:40:11.984Z,18.97
2023-08-05T01:42:39.906Z,18.96
2023-08-05T01:45:07.553Z,18.95
2023-08-05T01:47:34.235Z,18.96
2023-08-05T01:50:00.873Z,18.98
2023-08-05T01:52:27.338Z,18.96
2023-08-05T01:54:53.804Z,18.97
2023-08-05T01:57:20.285Z,18.97
2023-08-05T01:59:48.142Z,18.97
2023-08-05T02:02:14.671Z,18.96
2023-08-05T02:04:41.147Z,18.97
2023-08-05T02:07:07.593Z,18.97
2023-08-05T02:09:34.087Z,18.97
2023-08-05T02:12:00.519Z,18.96
2023-08-05T02:14:27.016Z,18.97
2023-08-05T02:16:54.900Z,18.98
2023-08-05T02:19:21.603Z,18.97
2023-08-05T02:21:48.141Z,18.97
2023-08-05T02:24:14.615Z,18.98
2023-08-05T02:26:41.124Z,18.97
2023-08-05T02:29:07.581Z,18.98
2023-08-05T02:31:34.217Z,18.98
2023-08-05T02:34:01.991Z,18.96
2023-08-05T02:36:28.450Z,18.97
2023-08-05T02:38:54.911Z,18.97
2023-08-05T02:41:21.390Z,18.98
2023-08-05T02:43:47.921Z,18.95
2023-08-05T02:46:14.455Z,18.97
2023-08-05T02:48:40.960Z,18.96
2023-08-05T02:51:08.871Z,18.97
2023-08-05T02:53:35.463Z,18.97
2023-08-05T02:56:02.033Z,18.97
2023-08-05T02:58:29.043Z,18.97
2023-08-05T03:00:55.548Z,18.96
2023-08-05T03:03:22.031Z,18.97
2023-08-05T03:05:48.503Z,18.97
2023-08-05T03:08:16.394Z,18.97
2023-08-05T03:10:42.877Z,18.97
2023-08-05T03:13:09.464Z,18.97
2023-08-05T03:15:35.903Z,18.97
2023-08-05T03:18:02.561Z,18.97
2023-08-05T03:20:30.499Z,18.97
2023-08-05T03:22:58.140Z,18.97
2023-08-05T03:25:27.200Z,18.98
2023-08-05T03:27:53.766Z,18.97
2023-08-05T03:30:20.698Z,18.98
2023-08-05T03:32:48.147Z,18.98
2023-08-05T03:35:15.028Z,18.96
2023-08-05T03:37:41.681Z,18.97
2023-08-05T03:40:08.984Z,18.97
2023-08-05T03:42:36.801Z,18.97
2023-08-05T03:45:03.698Z,18.97
2023-08-05T03:47:30.265Z,18.96
2023-08-05T03:49:56.929Z,18.97
2023-08-05T03:52:23.438Z,18.96
2023-08-05T03:54:50.043Z,18.97
2023-08-05T03:57:16.603Z,18.96
2023-08-05T03:59:44.410Z,18.96
2023-08-05T04:02:10.886Z,18.96
2023-08-05T04:04:37.339Z,18.96
2023-08-05T04:07:04.121Z,18.96
2023-08-05T04:09:30.579Z,18.97
2023-08-05T04:11:57.055Z,18.97
2023-08-05T04:14:23.621Z,18.95
2023-08-05T04:16:51.613Z,18.96
2023-08-05T04:19:18.377Z,18.96
2023-08-05T04:21:44.855Z,18.95
2023-08-05T04:24:11.378Z,18.96
2023-08-05T04:26:38.010Z,18.96
2023-08-05T04:29:04.701Z,18.96
2023-08-05T04:31:31.216Z,18.96
2023-08-05T04:33:59.053Z,18.95
2023-08-05T04:36:25.548Z,18.95
2023-08-05T04:38:52.018Z,18.95
2023-08-05T04:41:18.466Z,18.94
2023-08-05T04:43:44.921Z,18.95
2023-08-05T04:46:11.427Z,18.94
2023-08-05T04:48:37.900Z,18.95
2023-08-05T04:51:05.660Z,18.94
2023-08-05T04:53:32.139Z,18.93
2023-08-05T04:55:58.620Z,18.94
2023-08-05T04:58:25.186Z,18.94
2023-08-05T05:00:56.521Z,18.95
2023-08-05T05:03:23.498Z,18.93
2023-08-05T05:05:50.157Z,18.94
2023-08-05T05:08:17.905Z,18.93
2023-08-05T05:10:45.585Z,18.94
2023-08-05T05:13:12.083Z,18.94
2023-08-05T05:15:38.575Z,18.94
2023-08-05T05:18:05.246Z,18.94
2023-08-05T05:20:31.736Z,18.95
2023-08-05T05:22:58.184Z,18.94
2023-08-05T05:25:26.390Z,18.94
2023-08-05T05:27:52.855Z,18.94
2023-08-05T05:30:19.624Z,18.93
2023-08-05T05:32:46.361Z,18.93
2023-08-05T05:35:12.856Z,18.93
2023-08-05T05:37:39.339Z,18.94
2023-08-05T05:40:06.652Z,18.94
2023-08-05T05:42:34.414Z,18.94
2023-08-05T05:45:00.922Z,18.93
2023-08-05T05:47:27.390Z,18.93
2023-08-05T05:49:53.861Z,18.93
2023-08-05T05:52:20.329Z,18.94
2023-08-05T05:54:46.744Z,18.93
2023-08-05T05:57:13.216Z,18.94
2023-08-05T05:59:41.011Z,18.94
2023-08-05T06:02:07.762Z,18.94
2023-08-05T06:04:34.582Z,18.94
2023-08-05T06:07:01.118Z,18.93
2023-08-05T06:09:27.588Z,18.94
2023-08-05T06:11:54.136Z,18.94
2023-08-05T06:14:21.426Z,18.94
2023-08-05T06:16:49.472Z,18.93
2023-08-05T06:19:16.375Z,18.93
2023-08-05T06:21:42.884Z,18.94
2023-08-05T06:24:09.382Z,18.94
2023-08-05T06:26:35.932Z,18.92
2023-08-05T06:29:02.397Z,18.92
2023-08-05T06:31:28.848Z,18.91
2023-08-05T06:33:56.733Z,18.92
2023-08-05T06:36:23.523Z,18.93
2023-08-05T06:38:50.063Z,18.92
2023-08-05T06:41:16.555Z,18.92
2023-08-05T06:43:43.019Z,18.92
2023-08-05T06:46:09.506Z,18.93
2023-08-05T06:48:36.300Z,18.92
2023-08-05T06:51:04.127Z,18.91
2023-08-05T06:53:30.596Z,18.92
2023-08-05T06:56:04.785Z,18.93
2023-08-05T06:58:31.313Z,18.93
2023-08-05T07:00:57.773Z,18.94
2023-08-05T07:03:24.347Z,18.93
2023-08-05T07:05:55.003Z,18.91
2023-08-05T07:08:22.926Z,18.92
2023-08-05T07:10:54.195Z,18.93
2023-08-05T07:13:20.658Z,18.92
2023-08-05T07:15:47.148Z,18.92
2023-08-05T07:18:13.592Z,18.92
2023-08-05T07:20:40.758Z,18.92
2023-08-05T07:23:07.254Z,18.93
2023-08-05T07:25:35.062Z,18.91
2023-08-05T07:28:01.519Z,18.91
2023-08-05T07:30:28.000Z,18.92
2023-08-05T07:32:54.525Z,18.91
2023-08-05T07:35:21.055Z,18.91
2023-08-05T07:37:47.609Z,18.91
2023-08-05T07:40:14.154Z,18.91
2023-08-05T07:42:42.316Z,18.90
2023-08-05T07:45:09.373Z,18.91
2023-08-05T07:47:35.952Z,18.92
2023-08-05T07:50:02.515Z,18.91
2023-08-05T07:52:28.972Z,18.92
2023-08-05T07:54:55.481Z,18.93
2023-08-05T07:57:22.052Z,18.91
2023-08-05T07:59:49.797Z,18.92
2023-08-05T08:02:16.231Z,18.92
2023-08-05T08:04:42.685Z,18.92
2023-08-05T08:07:09.181Z,18.91
2023-08-05T08:09:35.738Z,18.91
2023-08-05T08:12:02.314Z,18.92
2023-08-05T08:14:28.784Z,18.91
2023-08-05T08:16:56.530Z,18.91
2023-08-05T08:19:23.096Z,18.92
2023-08-05T08:21:50.034Z,18.91
2023-08-05T08:24:16.763Z,18.91
2023-08-05T08:26:43.247Z,18.92
2023-08-05T08:29:09.710Z,18.93
2023-08-05T08:31:36.264Z,18.93
2023-08-05T08:34:04.112Z,18.93
2023-08-05T08:36:30.534Z,18.93
2023-08-05T08:38:57.012Z,18.93
2023-08-05T08:41:25.510Z,18.93
2023-08-05T08:43:52.497Z,18.93
2023-08-05T08:46:21.067Z,18.93
2023-08-05T08:48:48.160Z,18.93
2023-08-05T08:51:18.211Z,18.93
2023-08-05T08:53:47.846Z,18.93
2023-08-05T08:56:14.443Z,18.92
2023-08-05T08:58:40.915Z,18.93
2023-08-05T09:01:08.170Z,18.93
2023-08-05T09:03:35.786Z,18.93
2023-08-05T09:06:02.333Z,18.93
2023-08-05T09:08:30.633Z,18.92
2023-08-05T09:10:57.184Z,18.93
2023-08-05T09:13:23.820Z,18.93
2023-08-05T09:15:50.433Z,18.93
2023-08-05T09:18:16.929Z,18.94
2023-08-05T09:20:43.386Z,18.94
2023-08-05T09:23:11.168Z,18.93
2023-08-05T09:25:42.015Z,18.92
2023-08-05T09:28:09.050Z,18.92
2023-08-05T09:30:35.618Z,18.94
2023-08-05T09:33:02.329Z,18.95
2023-08-05T09:35:28.986Z,18.93
2023-08-05T09:37:55.709Z,18.93
2023-08-05T09:40:25.626Z,18.94
2023-08-05T09:42:54.791Z,18.94
2023-08-05T09:45:23.182Z,18.94
2023-08-05T09:47:49.761Z,18.95
2023-08-05T09:50:18.455Z,18.94
2023-08-05T09:52:45.443Z,18.95
2023-08-05T09:55:14.436Z,18.95
2023-08-05T09:57:41.487Z,18.96
2023-08-05T10:00:11.175Z,18.95
2023-08-05T10:02:38.024Z,18.96
2023-08-05T10:05:05.992Z,18.96
2023-08-05T10:07:32.566Z,18.96
2023-08-05T10:09:59.168Z,18.97
2023-08-05T10:12:27.148Z,18.97
2023-08-05T10:14:56.477Z,18.97
2023-08-05T10:17:25.681Z,18.96
2023-08-05T10:19:53.199Z,18.97
2023-08-05T10:22:22.294Z,18.98
2023-08-05T10:24:50.657Z,18.98
2023-08-05T10:27:17.170Z,18.98
2023-08-05T10:29:52.460Z,18.99
2023-08-05T10:32:28.931Z,18.99
2023-08-05T10:35:20.213Z,19.00
2023-08-05T10:37:48.504Z,18.99
2023-08-05T10:40:38.697Z,19.00
2023-08-05T10:43:05.471Z,19.01
2023-08-05T10:45:33.032Z,19.00
2023-08-05T10:48:01.015Z,19.00
2023-08-05T10:50:35.914Z,19.01
2023-08-05T10:53:05.527Z,19.00
2023-08-05T10:55:31.994Z,19.01
2023-08-05T10:57:59.694Z,19.02
2023-08-05T11:00:26.259Z,19.02
2023-08-05T11:03:12.559Z,19.03
2023-08-05T11:05:40.802Z,19.02
2023-08-05T11:08:08.300Z,19.03
2023-08-05T11:10:36.364Z,19.03
2023-08-05T11:13:03.276Z,19.04
2023-08-05T11:15:29.834Z,19.04
2023-08-05T11:17:56.485Z,19.04
2023-08-05T11:20:31.562Z,19.04
2023-08-05T11:23:00.469Z,19.03
2023-08-05T11:25:26.977Z,19.03
2023-08-05T11:27:53.635Z,19.04
2023-08-05T11:30:21.265Z,19.05
2023-08-05T11:32:50.396Z,19.05
2023-08-05T11:35:17.152Z,19.04
2023-08-05T11:37:43.682Z,19.05
2023-08-05T11:40:12.329Z,19.05
2023-08-05T11:42:38.882Z,19.07
2023-08-05T11:45:06.165Z,19.05
2023-08-05T11:47:36.849Z,19.07
2023-08-05T11:50:03.751Z,19.05
2023-08-05T11:52:30.453Z,19.06
2023-08-05T11:54:57.680Z,19.07
2023-08-05T11:57:26.150Z,19.07
2023-08-05T11:59:53.555Z,19.06
2023-08-05T12:02:20.312Z,19.08
2023-08-05T12:04:47.979Z,19.07
2023-08-05T12:07:15.716Z,19.08
2023-08-05T12:09:42.609Z,19.08
2023-08-05T12:12:14.445Z,19.08
2023-08-05T12:14:42.216Z,19.07
2023-08-05T12:17:08.722Z,19.06
2023-08-05T12:19:35.206Z,19.05
2023-08-05T12:22:01.654Z,19.07
2023-08-05T12:24:28.261Z,19.07
2023-08-05T12:26:54.946Z,19.07
2023-08-05T12:29:21.458Z,19.07
2023-08-05T12:31:49.382Z,19.07
2023-08-05T12:34:15.906Z,19.06
2023-08-05T12:36:42.684Z,19.07
2023-08-05T12:39:09.137Z,19.06
2023-08-05T12:41:35.768Z,19.07
2023-08-05T12:44:02.244Z,19.07
2023-08-05T12:46:28.773Z,19.08
2023-08-05T12:48:56.572Z,19.08
2023-08-05T12:51:23.037Z,19.07
2023-08-05T12:53:49.542Z,19.07
2023-08-05T12:56:16.108Z,19.06
2023-08-05T12:58:42.671Z,19.06
2023-08-05T13:01:09.176Z,19.05
2023-08-05T13:03:35.777Z,19.05
2023-08-05T13:06:03.698Z,19.06
2023-08-05T13:08:30.263Z,19.04
2023-08-05T13:10:56.754Z,19.05
2023-08-05T13:13:23.226Z,19.05
2023-08-05T13:15:49.738Z,19.04
2023-08-05T13:18:16.188Z,19.04
2023-08-05T13:20:42.644Z,19.05
2023-08-05T13:23:10.497Z,19.06
2023-08-05T13:25:36.958Z,19.06
2023-08-05T13:28:03.692Z,19.07
2023-08-05T13:30:30.216Z,19.07
2023-08-05T13:32:56.761Z,19.07
2023-08-05T13:35:23.252Z,19.05
2023-08-05T13:37:49.679Z,19.06
2023-08-05T13:40:18.595Z,19.05
2023-08-05T13:42:46.232Z,19.05
2023-08-05T13:45:12.774Z,19.04
2023-08-05T13:47:39.350Z,19.04
2023-08-05T13:50:06.707Z,19.03
2023-08-05T13:52:33.146Z,19.04
2023-08-05T13:54:59.721Z,19.03
2023-08-05T13:57:27.478Z,19.04
2023-08-05T13:59:54.053Z,19.04
2023-08-05T14:02:20.583Z,19.02
2023-08-05T14:04:47.068Z,19.02
2023-08-05T14:07:13.480Z,19.04
2023-08-05T14:09:39.915Z,19.05
2023-08-05T14:12:06.739Z,19.03
2023-08-05T14:14:34.543Z,19.05
2023-08-05T14:17:00.976Z,19.04
2023-08-05T14:19:27.416Z,19.05
2023-08-05T14:21:54.058Z,19.03
2023-08-05T14:24:20.532Z,19.04
2023-08-05T14:26:47.022Z,19.04
2023-08-05T14:29:13.580Z,19.03
2023-08-05T14:31:41.543Z,19.02
2023-08-05T14:34:08.136Z,19.00
2023-08-05T14:36:34.657Z,19.00
2023-08-05T14:39:04.279Z,19.01
2023-08-05T14:41:31.954Z,19.00
2023-08-05T14:43:58.448Z,19.01
2023-08-05T14:46:24.997Z,19.00
2023-08-05T14:48:52.798Z,18.98
2023-08-05T14:51:19.234Z,18.95
2023-08-05T14:53:45.688Z,18.95
2023-08-05T14:56:12.196Z,18.97
2023-08-05T14:58:38.635Z,18.96
2023-08-05T15:01:05.532Z,18.96
2023-08-05T15:03:32.281Z,18.94
2023-08-05T15:06:00.263Z,18.95
2023-08-05T15:08:26.719Z,18.96
2023-08-05T15:11:00.752Z,18.98
2023-08-05T15:13:27.335Z,18.96
2023-08-05T15:15:53.878Z,18.96
2023-08-05T15:18:20.435Z,18.95
2023-08-05T15:20:46.891Z,18.95
2023-08-05T15:23:27.713Z,18.94
2023-08-05T15:25:56.793Z,18.93
2023-08-05T15:28:23.295Z,18.92
2023-08-05T15:30:49.797Z,18.90
2023-08-05T15:33:16.267Z,18.93
2023-08-05T15:35:43.326Z,18.92
2023-08-05T15:38:09.915Z,18.91
2023-08-05T15:40:37.652Z,18.92
2023-08-05T15:43:04.087Z,18.91
2023-08-05T15:45:30.636Z,18.92
2023-08-05T15:47:57.189Z,18.91
2023-08-05T15:50:23.792Z,18.91
2023-08-05T15:52:51.023Z,18.89
2023-08-05T15:55:18.113Z,18.89
2023-08-05T15:57:47.384Z,18.90
2023-08-05T16:00:14.337Z,18.89
2023-08-05T16:02:40.796Z,18.89
2023-08-05T16:05:07.710Z,18.84
2023-08-05T16:07:36.662Z,18.86
2023-08-05T16:10:04.221Z,18.84
2023-08-05T16:12:30.703Z,18.84
2023-08-05T16:14:58.627Z,18.83
2023-08-05T16:17:25.296Z,18.84
2023-08-05T16:19:54.232Z,18.84
2023-08-05T16:22:20.692Z,18.84
2023-08-05T16:24:47.168Z,18.80
2023-08-05T16:27:13.942Z,18.79
2023-08-05T16:29:40.407Z,18.77
2023-08-05T16:32:08.711Z,18.79
2023-08-05T16:34:35.234Z,18.78
2023-08-05T16:37:01.763Z,18.77
2023-08-05T16:39:28.319Z,18.76
2023-08-05T16:41:57.078Z,18.77
2023-08-05T16:44:24.038Z,18.76
2023-08-05T16:46:50.524Z,18.74
2023-08-05T16:49:18.296Z,18.73
2023-08-05T16:51:44.792Z,18.72
2023-08-05T16:54:11.303Z,18.72
2023-08-05T16:56:37.800Z,18.70
2023-08-05T16:59:07.475Z,18.71
2023-08-05T17:01:34.397Z,18.72
2023-08-05T17:04:00.939Z,18.72
2023-08-05T17:06:28.774Z,18.72
2023-08-05T17:08:55.232Z,18.72
2023-08-05T17:11:21.786Z,18.71
2023-08-05T17:13:48.316Z,18.70
2023-08-05T17:16:14.787Z,18.69
2023-08-05T17:18:41.290Z,18.69
2023-08-05T17:21:07.709Z,18.69
2023-08-05T17:23:35.491Z,18.68
2023-08-05T17:26:01.969Z,18.68
2023-08-05T17:28:28.428Z,18.68
2023-08-05T17:30:54.937Z,18.69
2023-08-05T17:33:21.439Z,18.69
2023-08-05T17:35:51.275Z,18.68
2023-08-05T17:38:17.745Z,18.69
2023-08-05T17:40:45.533Z,18.67
2023-08-05T17:43:12.144Z,18.66
2023-08-05T17:45:38.670Z,18.66
2023-08-05T17:48:05.233Z,18.65
2023-08-05T17:50:31.844Z,18.65
2023-08-05T17:53:00.675Z,18.65
2023-08-05T17:55:32.167Z,18.65
2023-08-05T17:58:00.017Z,18.67
2023-08-05T18:00:26.545Z,18.67
2023-08-05T18:02:53.047Z,18.66
2023-08-05T18:05:19.787Z,18.67
2023-08-05T18:07:46.267Z,18.66
2023-08-05T18:10:12.746Z,18.66
2023-08-05T18:12:39.248Z,18.66
2023-08-05T18:15:07.953Z,18.64
2023-08-05T18:17:34.524Z,18.64
2023-08-05T18:20:01.024Z,18.64
2023-08-05T18:22:27.481Z,18.65
2023-08-05T18:24:53.955Z,18.63
2023-08-05T18:27:20.429Z,18.63
2023-08-05T18:29:46.878Z,18.63
2023-08-05T18:32:14.695Z,18.61
2023-08-05T18:34:41.197Z,18.60
2023-08-05T18:37:07.694Z,18.62
2023-08-05T18:39:35.021Z,18.60
2023-08-05T18:42:01.686Z,18.59
2023-08-05T18:44:28.144Z,18.59
2023-08-05T18:46:54.733Z,18.59
2023-08-05T18:49:22.588Z,18.58
2023-08-05T18:51:49.088Z,18.60
2023-08-05T18:54:15.706Z,18.60
2023-08-05T18:56:42.151Z,18.59
2023-08-05T18:59:08.759Z,18.58
2023-08-05T19:01:35.514Z,18.58
2023-08-05T19:04:02.017Z,18.58
2023-08-05T19:06:29.894Z,18.58
2023-08-05T19:08:56.365Z,18.58
2023-08-05T19:11:22.849Z,18.57
2023-08-05T19:13:49.386Z,18.56
2023-08-05T19:16:16.124Z,18.59
2023-08-05T19:18:42.722Z,18.58
2023-08-05T19:21:09.401Z,18.56
2023-08-05T19:23:37.268Z,18.55
2023-08-05T19:26:05.782Z,18.57
2023-08-05T19:28:32.869Z,18.57
2023-08-05T19:31:04.986Z,18.56
2023-08-05T19:33:31.537Z,18.55
2023-08-05T19:36:07.704Z,18.53
2023-08-05T19:38:34.176Z,18.53
2023-08-05T19:41:01.951Z,18.53
2023-08-05T19:43:29.097Z,18.53
2023-08-05T19:46:03.435Z,18.53
2023-08-05T19:48:29.892Z,18.55
2023-08-05T19:51:10.807Z,18.55
2023-08-05T19:53:39.770Z,18.54
2023-08-05T19:56:07.529Z,18.55
2023-08-05T19:58:35.365Z,18.53
2023-08-05T20:01:03.454Z,18.54
2023-08-05T20:03:31.562Z,18.55
2023-08-05T20:05:58.163Z,18.55
2023-08-05T20:08:24.642Z,18.55
2023-08-05T20:10:51.104Z,18.53
2023-08-05T20:13:18.921Z,18.51
2023-08-05T20:15:45.474Z,18.51
2023-08-05T20:18:12.041Z,18.50
2023-08-05T20:20:38.716Z,18.51
2023-08-05T20:23:05.312Z,18.51
2023-08-05T20:25:31.837Z,18.50
2023-08-05T20:27:58.326Z,18.51
2023-08-05T20:30:26.252Z,18.51
2023-08-05T20:32:52.812Z,18.51
2023-08-05T20:35:19.345Z,18.53
2023-08-05T20:37:45.778Z,18.53
2023-08-05T20:40:12.387Z,18.53
2023-08-05T20:42:38.849Z,18.52
2023-08-05T20:45:06.071Z,18.52
2023-08-05T20:47:34.100Z,18.48
2023-08-05T20:50:00.579Z,18.49
2023-08-05T20:52:27.107Z,18.49
2023-08-05T20:54:53.706Z,18.49
2023-08-05T20:57:20.241Z,18.49
2023-08-05T20:59:46.692Z,18.49
2023-08-05T21:02:13.204Z,18.50
2023-08-05T21:04:41.052Z,18.50
2023-08-05T21:07:07.493Z,18.50
2023-08-05T21:09:33.996Z,18.50
2023-08-05T21:12:00.461Z,18.50
2023-08-05T21:14:26.950Z,18.51
2023-08-05T21:16:53.469Z,18.52
2023-08-05T21:19:20.014Z,18.51
2023-08-05T21:21:47.828Z,18.51
2023-08-05T21:24:14.352Z,18.52
2023-08-05T21:26:40.909Z,18.49
2023-08-05T21:29:07.419Z,18.50
2023-08-05T21:31:33.996Z,18.50
2023-08-05T21:34:00.561Z,18.49
2023-08-05T21:36:27.030Z,18.47
2023-08-05T21:38:54.824Z,18.47
2023-08-05T21:41:21.280Z,18.47
2023-08-05T21:43:48.085Z,18.49
2023-08-05T21:46:14.626Z,18.47
2023-08-05T21:48:41.059Z,18.48
2023-08-05T21:51:07.835Z,18.47
2023-08-05T21:53:34.329Z,18.49
2023-08-05T21:56:02.108Z,18.50
2023-08-05T21:58:28.707Z,18.50
2023-08-05T22:00:55.210Z,18.50
2023-08-05T22:03:21.815Z,18.50
2023-08-05T22:05:48.425Z,18.50
2023-08-05T22:08:14.891Z,18.50
2023-08-05T22:10:41.364Z,18.48
2023-08-05T22:13:09.179Z,18.49
2023-08-05T22:15:35.703Z,18.49
2023-08-05T22:18:02.219Z,18.49
2023-08-05T22:20:28.726Z,18.49
2023-08-05T22:22:55.439Z,18.50
2023-08-05T22:25:22.251Z,18.49
2023-08-05T22:27:48.734Z,18.49
2023-08-05T22:30:16.650Z,18.49
2023-08-05T22:32:43.120Z,18.49
2023-08-05T22:35:09.810Z,18.50
2023-08-05T22:37:36.302Z,18.49
2023-08-05T22:40:02.809Z,18.48
2023-08-05T22:42:29.290Z,18.49
2023-08-05T22:44:55.767Z,18.46
2023-08-05T22:47:24.072Z,18.48
2023-08-05T22:49:50.674Z,18.46
2023-08-05T22:52:17.872Z,18.46
2023-08-05T22:54:44.462Z,18.45
2023-08-05T22:57:10.992Z,18.45
2023-08-05T22:59:37.474Z,18.46
2023-08-05T23:02:04.640Z,18.47
2023-08-05T23:04:32.511Z,18.47
2023-08-05T23:06:58.972Z,18.45
2023-08-05T23:09:25.411Z,18.46
2023-08-05T23:11:51.947Z,18.45
2023-08-05T23:14:18.424Z,18.46
2023-08-05T23:16:44.874Z,18.47
2023-08-05T23:19:11.364Z,18.45
2023-08-05T23:21:39.633Z,18.46
2023-08-05T23:24:06.341Z,18.47
2023-08-05T23:26:32.898Z,18.47
2023-08-05T23:28:59.484Z,18.47
2023-08-05T23:31:26.151Z,18.47
2023-08-05T23:33:52.803Z,18.47
2023-08-05T23:36:19.242Z,18.48
2023-08-05T23:38:47.009Z,18.47
2023-08-05T23:41:13.566Z,18.47
2023-08-05T23:43:40.383Z,18.48
2023-08-05T23:46:06.878Z,18.48
2023-08-05T23:48:33.393Z,18.48
2023-08-05T23:50:59.865Z,18.47
2023-08-05T23:53:26.340Z,18.47
2023-08-05T23:55:54.343Z,18.46
2023-08-05T23:58:20.980Z,18.46
